Terminal Aerodrome Forecast
Issued by NWS Paducah, KY

Home | Current Version | Previous Version | Text Only | Print | Product List | Glossary On
Versions: 1 2 3 4 5 6 7 8 9 10 11 12 13 14 15 16 17 18 19 20 21 22
000
FTUS43 KPAH 021100
TAFPAH
TAF
KPAH 021135Z 0212/0312 21006KT P6SM VCTS BKN050CB
      TEMPO 0215/0218 3SM TSRA BR OVC025CB
     FM021800 24008KT P6SM BKN035
     FM022200 25005KT P6SM SCT040
     FM030700 00000KT 4SM BR SKC
      TEMPO 0309/0312 2SM BR=

USA.gov is the U.S. government's official web portal to all federal, state and local government web resources and services.